»·PEaware :: SWA2341 KBUR-KLAS

SWA2341 :: KBUR-KLAS

FLIGHT INFORMATION

Flight Status: Arrived
Operator:
Southwest Airlines
More flights by this operator :: More flights under this callsign
Pilot: Vanya D. (11864)
Aircraft: BOEING 737-800
(B738)
More flights by this aircraft type
Origin: KBUR Bob Hope-Burbank
United States
Destination: KLAS McCarran Intl
United States
More flights between these airports :: More routes between these airports
Route: SLAPP1 MISEN KEPEC6
File this flight plan on PilotEdge
Remarks: SIMBRIEF
Altitude:
(Current/Filed)
27,000ft
Speed:
(Current/Filed)
469kts
Departed: 02-Dec-17 09:02 PM
Arrived: 02-Dec-17 09:49 PM
Distance/Time
Traveled:
194nm/0:46
Distance/Time
To Go:
Arrived

Flight Plot

Page will automatically refresh every two minutes.

Flight plan parsing failed; only flown route is shown


Map Options




Map Legend


Flown Route
Filed Route
Departure Airport
Arrival Airport
Navaid (VOR, NDB)
Fix

Horizontal Profiles

Position Reports

Time Latitude Longitude Heading Altitude Ground
Speed
02-Dec-17 20:41 34.196761 -118.350975 180 728ft 0kts
02-Dec-17 20:42 34.196761 -118.350975 179 729ft 0kts
02-Dec-17 20:43 34.196761 -118.350975 179 729ft 0kts
02-Dec-17 20:44 34.196761 -118.350975 179 729ft 0kts
02-Dec-17 20:45 34.196761 -118.350975 179 729ft 0kts
02-Dec-17 20:46 34.196761 -118.350975 179 729ft 0kts
02-Dec-17 20:47 34.196761 -118.350975 179 729ft 0kts
02-Dec-17 20:48 34.196761 -118.350975 179 729ft 0kts
02-Dec-17 20:49 34.196761 -118.350975 179 729ft 0kts
02-Dec-17 20:50 34.196761 -118.350975 179 729ft 0kts
02-Dec-17 20:51 34.196761 -118.350975 179 729ft 0kts
02-Dec-17 20:52 34.196761 -118.350975 179 729ft 0kts
02-Dec-17 20:53 34.196761 -118.350975 179 729ft 0kts
02-Dec-17 20:54 34.196761 -118.350975 179 729ft 0kts
02-Dec-17 20:55 34.196761 -118.350975 179 729ft 0kts
02-Dec-17 20:56 34.196761 -118.350975 179 729ft 0kts
02-Dec-17 20:57 34.197136 -118.350702 265 729ft 2kts
02-Dec-17 20:58 34.197140 -118.350529 270 729ft 0kts
02-Dec-17 20:59 34.197140 -118.350529 270 729ft 0kts
02-Dec-17 21:00 34.197140 -118.350529 270 729ft 0kts
02-Dec-17 21:01 34.197140 -118.350752 270 729ft 10kts
02-Dec-17 21:02 34.197076 -118.354131 262 729ft 15kts
02-Dec-17 21:03 34.199353 -118.355547 347 729ft 16kts
02-Dec-17 21:04 34.205054 -118.357144 347 729ft 23kts
02-Dec-17 21:05 34.211244 -118.358876 338 729ft 21kts
02-Dec-17 21:06 34.211940 -118.359551 309 729ft 3kts
02-Dec-17 21:07 34.209314 -118.359712 166 729ft 82kts
02-Dec-17 21:08 34.169117 -118.377000 240 3019ft 218kts
02-Dec-17 21:09 34.128958 -118.438564 265 4339ft 240kts
02-Dec-17 21:10 34.174961 -118.487782 332 6968ft 244kts
02-Dec-17 21:11 34.239665 -118.518376 350 9481ft 271kts
02-Dec-17 21:12 34.312847 -118.470982 33 11934ft 341kts
02-Dec-17 21:13 34.393242 -118.397051 34 14019ft 392kts
02-Dec-17 21:14 34.481502 -118.314737 36 16914ft 410kts
02-Dec-17 21:15 34.571076 -118.224733 36 19033ft 426kts
02-Dec-17 21:16 34.656696 -118.125703 58 19300ft 436kts
02-Dec-17 21:17 34.689937 -117.982661 79 21765ft 450kts
02-Dec-17 21:18 34.700422 -117.829010 85 23810ft 463kts
02-Dec-17 21:19 34.708172 -117.670244 87 25612ft 475kts
02-Dec-17 21:20 34.717289 -117.508312 79 27032ft 487kts
02-Dec-17 21:21 34.755238 -117.351219 70 27059ft 483kts
02-Dec-17 21:22 34.796867 -117.195563 71 27059ft 483kts
02-Dec-17 21:23 34.838186 -117.040283 71 27059ft 483kts
02-Dec-17 21:24 34.879028 -116.884649 71 27059ft 483kts
02-Dec-17 21:25 34.923059 -116.729951 62 27059ft 481kts
02-Dec-17 21:26 34.995369 -116.593708 53 27059ft 479kts
02-Dec-17 21:27 35.070099 -116.461374 53 25215ft 467kts
02-Dec-17 21:28 35.150742 -116.342790 42 24158ft 436kts
02-Dec-17 21:29 35.227816 -116.246410 42 24050ft 378kts
02-Dec-17 21:30 35.296498 -116.160009 42 23425ft 342kts
02-Dec-17 21:31 35.304180 -116.150325 42 23016ft 350kts
02-Dec-17 21:32 35.370059 -116.067448 42 19493ft 405kts
02-Dec-17 21:33 35.423063 -116.000696 43 17673ft 409kts
02-Dec-17 21:34 35.499119 -115.904772 43 16388ft 378kts
02-Dec-17 21:35 35.570102 -115.814563 43 15028ft 358kts
02-Dec-17 21:36 35.637657 -115.728357 43 13727ft 343kts
02-Dec-17 21:37 35.701890 -115.646354 42 12995ft 318kts
02-Dec-17 21:38 35.767779 -115.578317 11 12998ft 307kts
02-Dec-17 21:39 35.851482 -115.569782 357 13000ft 301kts
02-Dec-17 21:40 35.935294 -115.565531 358 12999ft 302kts
02-Dec-17 21:41 35.996281 -115.500146 75 12320ft 326kts
02-Dec-17 21:42 36.023898 -115.397219 69 11226ft 303kts
02-Dec-17 21:43 36.025931 -115.298669 95 10465ft 266kts
02-Dec-17 21:44 36.019526 -115.215530 95 9840ft 225kts
02-Dec-17 21:45 36.014449 -115.141712 95 8648ft 206kts
02-Dec-17 21:46 36.009771 -115.071257 94 7119ft 205kts
02-Dec-17 21:47 36.005576 -114.999915 92 5337ft 208kts
02-Dec-17 21:48 36.001612 -114.934160 92 4962ft 182kts
02-Dec-17 21:49 36.034054 -114.904502 350 5010ft 170kts
02-Dec-17 21:50 36.062483 -114.948186 302 5020ft 166kts
02-Dec-17 21:51 36.073848 -115.002970 271 3764ft 170kts
02-Dec-17 21:52 36.073652 -115.057039 268 3153ft 153kts
02-Dec-17 21:53 36.073637 -115.109099 269 2388ft 149kts
02-Dec-17 21:54 36.073633 -115.147483 273 2123ft 26kts
02-Dec-17 21:55 36.075109 -115.151088 323 2123ft 10kts
02-Dec-17 21:56 36.076892 -115.152255 333 2123ft 9kts
02-Dec-17 21:57 36.077316 -115.152506 335 2123ft 11kts
02-Dec-17 21:58 36.082062 -115.155263 335 2123ft 17kts
02-Dec-17 21:59 36.084088 -115.153251 50 2123ft 13kts
02-Dec-17 22:00 36.084793 -115.152378 40 2123ft 0kts
02-Dec-17 22:01 36.084834 -115.152334 40 2123ft 0kts
02-Dec-17 22:02 36.084834 -115.152334 40 2123ft 0kts
02-Dec-17 22:03 36.084834 -115.152334 40 2123ft 0kts

Navigation Log

Ident Type
Flight plan parsing failed, navigation log unavailable